Time;durP1;ratioP1;P1;durP2;ratioP2;P2;SDS_P1;SDS_P2;PMS_P1;PMS_P2;Temp;Humidity;BMP_temperature;BMP_pressure;BME280_temperature;BME280_humidity;BME280_pressure;Samples;Min_cycle;Max_cycle;Signal;HPM_P1;HPM_P2
2021/01/09 00:01:50;;;;;;;;;;;;;;;;;;4994373;28;19934;-68
2021/01/09 00:04:16;;;;;;;;;;;;;;;;;;4994170;28;19925;-68
2021/01/09 00:06:45;;;;;;;;;;;;;;;;;;4994762;28;20391;-68
2021/01/09 00:09:11;;;;;;;;;;;;;;;;;;4994217;28;19933;-68
2021/01/09 00:11:38;;;;;;;;;;;;;;;;;;4994465;28;19932;-68
2021/01/09 00:14:04;;;;;;;;;;;;;;;;;;4994997;28;20020;-70
2021/01/09 00:16:31;;;;;;;;;;;;;;;;;;4994063;28;20008;-69
2021/01/09 00:18:57;;;;;;;;;;;;;;;;;;4994324;28;19926;-69
2021/01/09 00:21:24;;;;;;;;;;;;;;;;;;4993623;28;19952;-69
2021/01/09 00:23:50;;;;;;;;;;;;;;;;;;4994191;28;19980;-69
2021/01/09 00:26:17;;;;;;;;;;;;;;;;;;4994585;28;19926;-69
2021/01/09 00:28:43;;;;;;;;;;;;;;;;;;4994020;28;19979;-69
2021/01/09 00:31:10;;;;;;;;;;;;;;;;;;4993596;28;20458;-69
2021/01/09 00:33:36;;;;;;;;;;;;;;;;;;4994086;28;20448;-69
2021/01/09 00:36:03;;;;;;;;;;;;;;;;;;4993635;28;19932;-69
2021/01/09 00:38:29;;;;;;;;;;;;;;;;;;4994120;28;20288;-69
2021/01/09 00:40:56;;;;;;;;;;;;;;;;;;4983949;28;19926;-69
2021/01/09 00:43:22;;;;;;;;;;;;;;;;;;4994374;28;19972;-69
2021/01/09 00:45:49;;;;;;;;;;;;;;;;;;4994122;28;19929;-69
2021/01/09 00:48:15;;;;;;;;;;;;;;;;;;4992824;28;19927;-69
2021/01/09 00:50:42;;;;;;;;;;;;;;;;;;4993755;28;20299;-69
2021/01/09 00:53:08;;;;;;;;;;;;;;;;;;4993995;28;19930;-69
2021/01/09 00:55:35;;;;;;;;;;;;;;;;;;4993935;28;20299;-69
2021/01/09 00:58:01;;;;;;;;;;;;;;;;;;4994278;28;20292;-69
2021/01/09 01:00:28;;;;;;;;;;;;;;;;;;4993490;28;20327;-69
2021/01/09 01:02:54;;;;;;;;;;;;;;;;;;4993612;28;19932;-69
2021/01/09 01:05:21;;;;;;;;;;;;;;;;;;4994072;28;19950;-69
2021/01/09 01:07:47;;;;;;;;;;;;;;;;;;4993573;28;20008;-69
2021/01/09 01:10:13;;;;;;;;;;;;;;;;;;4993370;28;19932;-69
2021/01/09 01:12:40;;;;;;;;;;;;;;;;;;4994066;28;19932;-69
2021/01/09 01:15:06;;;;;;;;;;;;;;;;;;4993481;28;19925;-69
2021/01/09 01:17:33;;;;;;;;;;;;;;;;;;4993898;28;19926;-69
2021/01/09 01:19:59;;;;;;;;;;;;;;;;;;4993187;28;20287;-69
2021/01/09 01:22:26;;;;;;;;;;;;;;;;;;4993591;28;20348;-69
2021/01/09 01:24:52;;;;;;;;;;;;;;;;;;4993512;28;20315;-69
2021/01/09 01:27:18;;;;;;;;;;;;;;;;;;4993006;28;19930;-69
2021/01/09 01:29:45;;;;;;;;;;;;;;;;;;4993071;28;19932;-68
2021/01/09 01:32:11;;;;;;;;;;;;;;;;;;4993280;28;19926;-70
2021/01/09 01:34:38;;;;;;;;;;;;;;;;;;4992832;28;19969;-69
2021/01/09 01:37:04;;;;;;;;;;;;;;;;;;4993338;28;19956;-69
2021/01/09 01:39:31;;;;;;;;;;;;;;;;;;4993053;28;20135;-69
2021/01/09 01:41:57;;;;;;;;;;;;;;;;;;4993556;28;19926;-70
2021/01/09 01:44:23;;;;;;;;;;;;;;;;;;4993249;28;19930;-69
2021/01/09 01:46:50;;;;;;;;;;;;;;;;;;4983703;28;19925;-69
2021/01/09 01:49:16;;;;;;;;;;;;;;;;;;4992793;28;19944;-69
2021/01/09 01:51:43;;;;;;;;;;;;;;;;;;4992402;28;19925;-69
2021/01/09 01:54:09;;;;;;;;;;;;;;;;;;4992243;28;19932;-69
2021/01/09 01:56:36;;;;;;;;;;;;;;;;;;4992615;28;19938;-69
2021/01/09 01:59:02;;;;;;;;;;;;;;;;;;4992736;28;20008;-69
2021/01/09 02:01:29;;;;;;;;;;;;;;;;;;4991921;28;19937;-69
2021/01/09 02:03:55;;;;;;;;;;;;;;;;;;4992367;28;19930;-69
2021/01/09 02:06:22;;;;;;;;;;;;;;;;;;4992490;28;19930;-69
2021/01/09 02:08:48;;;;;;;;;;;;;;;;;;4992679;28;19938;-69
2021/01/09 02:11:15;;;;;;;;;;;;;;;;;;4993166;28;19987;-70
2021/01/09 02:13:41;;;;;;;;;;;;;;;;;;4992482;28;19925;-69
2021/01/09 02:16:08;;;;;;;;;;;;;;;;;;4992011;28;19926;-69
2021/01/09 02:18:34;;;;;;;;;;;;;;;;;;4992039;28;19926;-69
2021/01/09 02:21:00;;;;;;;;;;;;;;;;;;4992301;28;19926;-69
2021/01/09 02:23:27;;;;;;;;;;;;;;;;;;4992613;28;19925;-69
2021/01/09 02:25:53;;;;;;;;;;;;;;;;;;4989966;28;19926;-69
2021/01/09 02:28:20;;;;;;;;;;;;;;;;;;4987113;28;19926;-69
2021/01/09 02:30:48;;;;;;;;;;;;;;;;;;4991499;28;20391;-69
2021/01/09 02:33:14;;;;;;;;;;;;;;;;;;4991627;28;20408;-69
2021/01/09 02:35:41;;;;;;;;;;;;;;;;;;4992088;28;20295;-69
2021/01/09 02:38:07;;;;;;;;;;;;;;;;;;4992123;28;19933;-69
2021/01/09 02:40:34;;;;;;;;;;;;;;;;;;4991864;28;19971;-69
2021/01/09 02:43:00;;;;;;;;;;;;;;;;;;4992568;28;20742;-69
2021/01/09 02:45:27;;;;;;;;;;;;;;;;;;4991737;28;19932;-69
2021/01/09 02:47:53;;;;;;;;;;;;;;;;;;4991863;28;19926;-69
2021/01/09 02:50:20;;;;;;;;;;;;;;;;;;4991999;28;20735;-68
2021/01/09 02:52:46;;;;;;;;;;;;;;;;;;4992215;28;19976;-69
2021/01/09 02:55:13;;;;;;;;;;;;;;;;;;4994981;28;20402;-69
2021/01/09 02:57:39;;;;;;;;;;;;;;;;;;4995816;28;19930;-68
2021/01/09 03:00:05;;;;;;;;;;;;;;;;;;4995149;28;19976;-69
2021/01/09 03:02:32;;;;;;;;;;;;;;;;;;4995857;28;19926;-70
2021/01/09 03:04:58;;;;;;;;;;;;;;;;;;4995259;28;20406;-70
2021/01/09 03:07:25;;;;;;;;;;;;;;;;;;4995827;28;19933;-69
2021/01/09 03:09:51;;;;;;;;;;;;;;;;;;4995522;28;19926;-69
2021/01/09 03:12:18;;;;;;;;;;;;;;;;;;4994913;28;19936;-69
2021/01/09 03:14:44;;;;;;;;;;;;;;;;;;4995712;28;19926;-69
2021/01/09 03:17:11;;;;;;;;;;;;;;;;;;4995119;28;19926;-69
2021/01/09 03:19:37;;;;;;;;;;;;;;;;;;4995505;28;20335;-69
2021/01/09 03:22:04;;;;;;;;;;;;;;;;;;4995463;28;19926;-69
2021/01/09 03:24:30;;;;;;;;;;;;;;;;;;4994704;28;19925;-69
2021/01/09 03:26:56;;;;;;;;;;;;;;;;;;4995230;28;19926;-70
2021/01/09 03:29:23;;;;;;;;;;;;;;;;;;4994448;28;20379;-70
2021/01/09 03:31:49;;;;;;;;;;;;;;;;;;4994605;28;19996;-70
2021/01/09 03:34:16;;;;;;;;;;;;;;;;;;4995260;28;19949;-69
2021/01/09 03:36:42;;;;;;;;;;;;;;;;;;4995305;28;19925;-67
2021/01/09 03:39:09;;;;;;;;;;;;;;;;;;4995282;28;19951;-68
2021/01/09 03:41:35;;;;;;;;;;;;;;;;;;4994750;28;19930;-68
2021/01/09 03:44:02;;;;;;;;;;;;;;;;;;4994737;28;19932;-68
2021/01/09 03:46:28;;;;;;;;;;;;;;;;;;4995067;28;19936;-68
2021/01/09 03:48:55;;;;;;;;;;;;;;;;;;4994145;28;19932;-68
2021/01/09 03:51:21;;;;;;;;;;;;;;;;;;4995004;28;19940;-68
2021/01/09 03:53:48;;;;;;;;;;;;;;;;;;4992278;28;19925;-68
2021/01/09 03:56:14;;;;;;;;;;;;;;;;;;4994889;28;19925;-68
2021/01/09 03:58:42;;;;;;;;;;;;;;;;;;4994332;28;19973;-68
2021/01/09 04:01:08;;;;;;;;;;;;;;;;;;4993382;28;19976;-68
2021/01/09 04:03:35;;;;;;;;;;;;;;;;;;4994059;28;19980;-68
2021/01/09 04:06:01;;;;;;;;;;;;;;;;;;4993201;28;19926;-68
2021/01/09 04:08:27;;;;;;;;;;;;;;;;;;4994662;28;19933;-68
2021/01/09 04:10:54;;;;;;;;;;;;;;;;;;4993963;28;19926;-68
2021/01/09 04:13:20;;;;;;;;;;;;;;;;;;4994907;28;19932;-68
2021/01/09 04:15:47;;;;;;;;;;;;;;;;;;4993648;28;19930;-68
2021/01/09 04:18:13;;;;;;;;;;;;;;;;;;4994155;28;19926;-68
2021/01/09 04:20:40;;;;;;;;;;;;;;;;;;4993242;28;19926;-68
2021/01/09 04:23:06;;;;;;;;;;;;;;;;;;4994010;28;19925;-68
2021/01/09 04:25:33;;;;;;;;;;;;;;;;;;4993978;28;19929;-68
2021/01/09 04:27:59;;;;;;;;;;;;;;;;;;4994221;28;19932;-68
2021/01/09 04:30:26;;;;;;;;;;;;;;;;;;4986686;28;19988;-68
2021/01/09 04:32:52;;;;;;;;;;;;;;;;;;4993911;28;19926;-69
2021/01/09 04:35:19;;;;;;;;;;;;;;;;;;4993754;28;20297;-69
2021/01/09 04:37:45;;;;;;;;;;;;;;;;;;4992889;28;19976;-69
2021/01/09 04:40:12;;;;;;;;;;;;;;;;;;4993697;28;19932;-69
2021/01/09 04:42:38;;;;;;;;;;;;;;;;;;4993111;28;19930;-68
2021/01/09 04:45:05;;;;;;;;;;;;;;;;;;4993017;28;19926;-69
2021/01/09 04:47:31;;;;;;;;;;;;;;;;;;4993409;28;20299;-69
2021/01/09 04:49:58;;;;;;;;;;;;;;;;;;4993078;28;19960;-68
2021/01/09 04:52:24;;;;;;;;;;;;;;;;;;4993653;28;19926;-68
2021/01/09 04:54:50;;;;;;;;;;;;;;;;;;4993943;28;19929;-69
2021/01/09 04:57:17;;;;;;;;;;;;;;;;;;4993766;28;19933;-69
2021/01/09 04:59:43;;;;;;;;;;;;;;;;;;4993501;28;19926;-69
2021/01/09 05:02:10;;;;;;;;;;;;;;;;;;4992977;28;19972;-68
2021/01/09 05:04:36;;;;;;;;;;;;;;;;;;4993161;28;19925;-68
2021/01/09 05:07:03;;;;;;;;;;;;;;;;;;4993567;28;20286;-68
2021/01/09 05:09:29;;;;;;;;;;;;;;;;;;4992695;28;19925;-68
2021/01/09 05:11:56;;;;;;;;;;;;;;;;;;4993075;28;20016;-69
2021/01/09 05:14:22;;;;;;;;;;;;;;;;;;4992695;28;19926;-69
2021/01/09 05:16:49;;;;;;;;;;;;;;;;;;4991751;28;19929;-68
2021/01/09 05:19:15;;;;;;;;;;;;;;;;;;4992335;28;19934;-68
2021/01/09 05:21:42;;;;;;;;;;;;;;;;;;4992541;28;19933;-69
2021/01/09 05:24:08;;;;;;;;;;;;;;;;;;4992866;28;19930;-69
2021/01/09 05:26:35;;;;;;;;;;;;;;;;;;4993489;28;19925;-69
2021/01/09 05:29:01;;;;;;;;;;;;;;;;;;4993855;28;19933;-68
2021/01/09 05:31:27;;;;;;;;;;;;;;;;;;4987300;28;19925;-68
2021/01/09 05:33:54;;;;;;;;;;;;;;;;;;4993031;28;19926;-69
2021/01/09 05:36:20;;;;;;;;;;;;;;;;;;4984520;28;19929;-69
2021/01/09 05:38:47;;;;;;;;;;;;;;;;;;4992645;28;20387;-68
2021/01/09 05:41:13;;;;;;;;;;;;;;;;;;4992362;28;19932;-68
2021/01/09 05:43:40;;;;;;;;;;;;;;;;;;4992178;28;20379;-68
2021/01/09 05:46:06;;;;;;;;;;;;;;;;;;4992486;28;19925;-68
2021/01/09 05:48:33;;;;;;;;;;;;;;;;;;4991810;28;19925;-69
2021/01/09 05:50:59;;;;;;;;;;;;;;;;;;4992248;28;19932;-69
2021/01/09 05:53:26;;;;;;;;;;;;;;;;;;4992348;28;19926;-68
2021/01/09 05:55:52;;;;;;;;;;;;;;;;;;5000638;28;19948;-68
2021/01/09 05:58:19;;;;;;;;;;;;;;;;;;4992450;28;19936;-68
2021/01/09 06:00:45;;;;;;;;;;;;;;;;;;4993245;28;19999;-69
2021/01/09 06:03:12;;;;;;;;;;;;;;;;;;4993530;28;19933;-69
2021/01/09 06:05:38;;;;;;;;;;;;;;;;;;4992950;28;20343;-69
2021/01/09 06:08:05;;;;;;;;;;;;;;;;;;4991880;28;19941;-68
2021/01/09 06:10:31;;;;;;;;;;;;;;;;;;4989294;28;19926;-68
2021/01/09 06:12:58;;;;;;;;;;;;;;;;;;4990095;28;19925;-68
2021/01/09 06:15:24;;;;;;;;;;;;;;;;;;5006756;23;20411;-68
2021/01/09 06:17:51;;;;;;;;;;;;;;;;;;4982168;28;19925;-69
2021/01/09 06:20:17;;;;;;;;;;;;;;;;;;4985539;28;20017;-69
2021/01/09 06:22:44;;;;;;;;;;;;;;;;;;4982510;28;19945;-69
2021/01/09 06:25:10;;;;;;;;;;;;;;;;;;4975463;28;20471;-68
2021/01/09 06:27:37;;;;;;;;;;;;;;;;;;4986689;28;19980;-69
2021/01/09 06:30:03;;;;;;;;;;;;;;;;;;4978449;28;20020;-68
2021/01/09 06:32:30;;;;;;;;;;;;;;;;;;4978990;28;19926;-68
2021/01/09 06:34:56;;;;;;;;;;;;;;;;;;4979137;28;19933;-69
2021/01/09 06:37:22;;;;;;;;;;;;;;;;;;4984575;28;19926;-68
2021/01/09 06:39:49;;;;;;;;;;;;;;;;;;4979777;28;19926;-68
2021/01/09 06:42:15;;;;;;;;;;;;;;;;;;4981761;28;19926;-68
2021/01/09 06:44:42;;;;;;;;;;;;;;;;;;4983452;28;19979;-68
2021/01/09 06:47:08;;;;;;;;;;;;;;;;;;4974841;28;20439;-68
2021/01/09 06:49:35;;;;;;;;;;;;;;;;;;4983714;28;20407;-68
2021/01/09 06:52:02;;;;;;;;;;;;;;;;;;4987461;28;20404;-69
2021/01/09 06:54:28;;;;;;;;;;;;;;;;;;4980486;28;19926;-68
2021/01/09 06:56:55;;;;;;;;;;;;;;;;;;4984386;28;19926;-68
2021/01/09 06:59:21;;;;;;;;;;;;;;;;;;4980603;28;20377;-68
2021/01/09 07:01:48;;;;;;;;;;;;;;;;;;4984823;28;19948;-71
2021/01/09 07:04:14;;;;;;;;;;;;;;;;;;4979336;28;19926;-69
2021/01/09 07:06:41;;;;;;;;;;;;;;;;;;4980461;28;19957;-68
2021/01/09 07:09:07;;;;;;;;;;;;;;;;;;4976018;28;20017;-67
2021/01/09 07:11:33;;;;;;;;;;;;;;;;;;4979512;28;19934;-69
2021/01/09 07:14:00;;;;;;;;;;;;;;;;;;4977535;28;19926;-66
2021/01/09 07:16:26;;;;;;;;;;;;;;;;;;4977355;28;19925;-69
2021/01/09 07:18:53;;;;;;;;;;;;;;;;;;4979584;28;19940;-69
2021/01/09 07:21:19;;;;;;;;;;;;;;;;;;4982087;28;20295;-66
2021/01/09 07:23:46;;;;;;;;;;;;;;;;;;4989311;28;19934;-67
2021/01/09 07:26:12;;;;;;;;;;;;;;;;;;4987589;28;19991;-66
2021/01/09 07:28:39;;;;;;;;;;;;;;;;;;4977095;28;19930;-66
2021/01/09 07:31:05;;;;;;;;;;;;;;;;;;4978413;28;19934;-66
2021/01/09 07:33:32;;;;;;;;;;;;;;;;;;4983919;28;19966;-67
2021/01/09 07:35:58;;;;;;;;;;;;;;;;;;4977368;28;19926;-67
2021/01/09 07:38:25;;;;;;;;;;;;;;;;;;4979063;28;19934;-67
2021/01/09 07:40:51;;;;;;;;;;;;;;;;;;4986410;28;20376;-67
2021/01/09 07:43:18;;;;;;;;;;;;;;;;;;4971676;28;19934;-68
2021/01/09 07:45:44;;;;;;;;;;;;;;;;;;4977858;28;20385;-67
2021/01/09 07:48:11;;;;;;;;;;;;;;;;;;4968592;28;19931;-67
2021/01/09 07:50:37;;;;;;;;;;;;;;;;;;4972672;28;19926;-67
2021/01/09 07:53:03;;;;;;;;;;;;;;;;;;4979630;28;19937;-67
2021/01/09 07:55:30;;;;;;;;;;;;;;;;;;4977105;28;19926;-68
2021/01/09 07:57:56;;;;;;;;;;;;;;;;;;4988116;28;19926;-68
2021/01/09 08:00:23;;;;;;;;;;;;;;;;;;4975959;28;19926;-67
2021/01/09 08:02:49;;;;;;;;;;;;;;;;;;4976209;28;19926;-67
2021/01/09 08:05:16;;;;;;;;;;;;;;;;;;4971075;28;19987;-67
2021/01/09 08:07:42;;;;;;;;;;;;;;;;;;4966140;28;20289;-68
2021/01/09 08:10:09;;;;;;;;;;;;;;;;;;4976832;28;19996;-68
2021/01/09 08:12:35;;;;;;;;;;;;;;;;;;4983488;28;19949;-67
2021/01/09 08:15:01;;;;;;;;;;;;;;;;;;4984537;28;19925;-67
2021/01/09 08:17:28;;;;;;;;;;;;;;;;;;4978159;28;19937;-68
2021/01/09 08:19:54;;;;;;;;;;;;;;;;;;4976482;28;20990;-68
2021/01/09 08:22:21;;;;;;;;;;;;;;;;;;4981599;28;19962;-67
2021/01/09 08:24:47;;;;;;;;;;;;;;;;;;4982405;28;19930;-68
2021/01/09 08:27:14;;;;;;;;;;;;;;;;;;4977200;28;19984;-68
2021/01/09 08:29:40;;;;;;;;;;;;;;;;;;4983543;28;19941;-68
2021/01/09 08:32:06;;;;;;;;;;;;;;;;;;4972284;28;20296;-68
2021/01/09 08:34:33;;;;;;;;;;;;;;;;;;4977583;28;19941;-67
2021/01/09 08:36:59;;;;;;;;;;;;;;;;;;4974340;28;19927;-67
2021/01/09 08:39:26;;;;;;;;;;;;;;;;;;4976637;28;19942;-68
2021/01/09 08:41:53;;;;;;;;;;;;;;;;;;4973526;28;21486;-68
2021/01/09 08:44:19;;;;;;;;;;;;;;;;;;4981186;28;19926;-68
2021/01/09 08:46:46;;;;;;;;;;;;;;;;;;4982064;28;19938;-68
2021/01/09 08:49:12;;;;;;;;;;;;;;;;;;4978351;28;19933;-68
2021/01/09 08:51:39;;;;;;;;;;;;;;;;;;4979441;28;19926;-68
2021/01/09 08:54:05;;;;;;;;;;;;;;;;;;4980788;28;19927;-68
2021/01/09 08:56:31;;;;;;;;;;;;;;;;;;4982542;28;20556;-68
2021/01/09 08:58:58;;;;;;;;;;;;;;;;;;4981160;28;19933;-68
2021/01/09 09:01:24;;;;;;;;;;;;;;;;;;4977557;28;19927;-68
2021/01/09 09:03:51;;;;;;;;;;;;;;;;;;4975877;28;19933;-68
2021/01/09 09:06:19;;;;;;;;;;;;;;;;;;4970138;28;19949;-68
2021/01/09 09:08:45;;;;;;;;;;;;;;;;;;4982215;28;20012;-68
2021/01/09 09:11:12;;;;;;;;;;;;;;;;;;4967096;28;20381;-68
2021/01/09 09:13:39;;;;;;;;;;;;;;;;;;4973754;28;19926;-68
2021/01/09 09:16:05;;;;;;;;;;;;;;;;;;4978537;28;19926;-68
2021/01/09 09:18:31;;;;;;;;;;;;;;;;;;4976013;28;19930;-68
2021/01/09 09:20:58;;;;;;;;;;;;;;;;;;4978127;28;20392;-68
2021/01/09 09:23:24;;;;;;;;;;;;;;;;;;4973276;28;19933;-68
2021/01/09 09:25:51;;;;;;;;;;;;;;;;;;4978662;28;19926;-68
2021/01/09 09:28:17;;;;;;;;;;;;;;;;;;4971531;28;20013;-68
2021/01/09 09:30:44;;;;;;;;;;;;;;;;;;4975112;28;19926;-68
2021/01/09 09:33:10;;;;;;;;;;;;;;;;;;4975875;28;20451;-68
2021/01/09 09:35:37;;;;;;;;;;;;;;;;;;4978130;28;19965;-69
2021/01/09 09:38:03;;;;;;;;;;;;;;;;;;4978352;28;20021;-68
2021/01/09 09:40:30;;;;;;;;;;;;;;;;;;4972824;28;20025;-68
2021/01/09 09:42:56;;;;;;;;;;;;;;;;;;4975552;28;19934;-68
2021/01/09 09:45:23;;;;;;;;;;;;;;;;;;4973900;28;20319;-68
2021/01/09 09:47:52;;;;;;;;;;;;;;;;;;4976633;28;19980;-68
2021/01/09 09:50:18;;;;;;;;;;;;;;;;;;4974185;28;19927;-68
2021/01/09 09:52:45;;;;;;;;;;;;;;;;;;4967989;28;19926;-68
2021/01/09 09:55:11;;;;;;;;;;;;;;;;;;4973759;28;20024;-68
2021/01/09 09:57:38;;;;;;;;;;;;;;;;;;4977812;28;20611;-68
2021/01/09 10:00:04;;;;;;;;;;;;;;;;;;4971508;28;20357;-68
2021/01/09 10:02:31;;;;;;;;;;;;;;;;;;4980065;28;19926;-68
2021/01/09 10:04:57;;;;;;;;;;;;;;;;;;4968493;28;20347;-66
2021/01/09 10:07:24;;;;;;;;;;;;;;;;;;4965365;28;19930;-66
2021/01/09 10:09:50;;;;;;;;;;;;;;;;;;4965997;28;19926;-67
2021/01/09 10:12:17;;;;;;;;;;;;;;;;;;4964748;28;19926;-66
2021/01/09 10:14:43;;;;;;;;;;;;;;;;;;4964688;28;20312;-66
2021/01/09 10:17:10;;;;;;;;;;;;;;;;;;4968041;28;20443;-65
2021/01/09 10:19:36;;;;;;;;;;;;;;;;;;4966860;28;19959;-65
2021/01/09 10:22:03;;;;;;;;;;;;;;;;;;4973654;28;19997;-68
2021/01/09 10:24:29;;;;;;;;;;;;;;;;;;4966482;28;19951;-66
2021/01/09 10:26:56;;;;;;;;;;;;;;;;;;4965540;28;19949;-68
2021/01/09 10:29:22;;;;;;;;;;;;;;;;;;4964441;28;19927;-66
2021/01/09 10:31:49;;;;;;;;;;;;;;;;;;4966212;28;19933;-66
2021/01/09 10:34:15;;;;;;;;;;;;;;;;;;4967273;28;20392;-66
2021/01/09 10:36:42;;;;;;;;;;;;;;;;;;4966411;28;19938;-66
2021/01/09 10:39:08;;;;;;;;;;;;;;;;;;4969286;28;20070;-66
2021/01/09 10:41:35;;;;;;;;;;;;;;;;;;4966157;28;19997;-66
2021/01/09 10:44:01;;;;;;;;;;;;;;;;;;4961556;28;19995;-66
2021/01/09 10:46:28;;;;;;;;;;;;;;;;;;4964037;28;19926;-68
2021/01/09 10:48:55;;;;;;;;;;;;;;;;;;4962407;28;19927;-66
2021/01/09 10:51:21;;;;;;;;;;;;;;;;;;4962433;28;20017;-66
2021/01/09 10:53:47;;;;;;;;;;;;;;;;;;4970230;28;19927;-66
2021/01/09 10:56:14;;;;;;;;;;;;;;;;;;4973571;28;19926;-66
2021/01/09 10:58:40;;;;;;;;;;;;;;;;;;4969134;28;19980;-67
2021/01/09 11:01:07;;;;;;;;;;;;;;;;;;4973019;28;19926;-67
2021/01/09 11:03:33;;;;;;;;;;;;;;;;;;4980070;28;19930;-67
2021/01/09 11:06:00;;;;;;;;;;;;;;;;;;4970931;28;20291;-67
2021/01/09 11:08:26;;;;;;;;;;;;;;;;;;4971740;28;19932;-67
2021/01/09 11:10:53;;;;;;;;;;;;;;;;;;4971556;28;20301;-68
2021/01/09 11:13:19;;;;;;;;;;;;;;;;;;4970413;28;19930;-67
2021/01/09 11:15:46;;;;;;;;;;;;;;;;;;4976451;28;21393;-68
2021/01/09 11:18:12;;;;;;;;;;;;;;;;;;4975263;28;19926;-68
2021/01/09 11:20:39;;;;;;;;;;;;;;;;;;4966615;28;19978;-68
2021/01/09 11:23:05;;;;;;;;;;;;;;;;;;4964410;28;19934;-67
2021/01/09 11:25:32;;;;;;;;;;;;;;;;;;4971433;28;19930;-67
2021/01/09 11:27:58;;;;;;;;;;;;;;;;;;4981593;28;19933;-68
2021/01/09 11:30:25;;;;;;;;;;;;;;;;;;4973741;28;19926;-68
2021/01/09 11:32:51;;;;;;;;;;;;;;;;;;4973554;28;19966;-68
2021/01/09 11:35:18;;;;;;;;;;;;;;;;;;4971512;28;19926;-67
2021/01/09 11:37:44;;;;;;;;;;;;;;;;;;4971913;28;20202;-67
2021/01/09 11:40:11;;;;;;;;;;;;;;;;;;4972907;28;19930;-67
2021/01/09 11:42:37;;;;;;;;;;;;;;;;;;4974960;28;20008;-67
2021/01/09 11:45:04;;;;;;;;;;;;;;;;;;4974785;28;19933;-67
2021/01/09 11:47:30;;;;;;;;;;;;;;;;;;4976783;28;19934;-67
2021/01/09 11:49:57;;;;;;;;;;;;;;;;;;4970435;28;20016;-67
2021/01/09 11:52:23;;;;;;;;;;;;;;;;;;4973593;28;19926;-68
2021/01/09 11:54:50;;;;;;;;;;;;;;;;;;4968845;28;19952;-68
2021/01/09 11:57:17;;;;;;;;;;;;;;;;;;4977496;28;19937;-68
2021/01/09 11:59:44;;;;;;;;;;;;;;;;;;4973096;28;20052;-68
2021/01/09 12:02:10;;;;;;;;;;;;;;;;;;4973807;28;19930;-67
2021/01/09 12:04:37;;;;;;;;;;;;;;;;;;4965548;28;20041;-67
2021/01/09 12:07:03;;;;;;;;;;;;;;;;;;4974854;28;19976;-69
2021/01/09 12:09:30;;;;;;;;;;;;;;;;;;4979375;28;20019;-67
2021/01/09 12:11:56;;;;;;;;;;;;;;;;;;4975421;28;19938;-67
2021/01/09 12:14:23;;;;;;;;;;;;;;;;;;4975416;28;20029;-68
2021/01/09 12:16:49;;;;;;;;;;;;;;;;;;5006128;23;19936;-68
2021/01/09 12:19:16;;;;;;;;;;;;;;;;;;4991602;28;20303;-68
2021/01/09 12:21:42;;;;;;;;;;;;;;;;;;4985138;28;19926;-68
2021/01/09 12:24:09;;;;;;;;;;;;;;;;;;4994053;28;19933;-68
2021/01/09 12:26:35;;;;;;;;;;;;;;;;;;4990764;28;19934;-68
2021/01/09 12:29:02;;;;;;;;;;;;;;;;;;4989952;28;20024;-68
2021/01/09 12:31:28;;;;;;;;;;;;;;;;;;4990187;28;19925;-69
2021/01/09 12:33:55;;;;;;;;;;;;;;;;;;4992554;28;19988;-68
2021/01/09 12:36:21;;;;;;;;;;;;;;;;;;4990784;28;20272;-69
2021/01/09 12:38:48;;;;;;;;;;;;;;;;;;4993944;28;20044;-69
2021/01/09 12:41:14;;;;;;;;;;;;;;;;;;4993196;28;19933;-71
2021/01/09 12:43:41;;;;;;;;;;;;;;;;;;4992002;28;20396;-69
2021/01/09 12:46:07;;;;;;;;;;;;;;;;;;4993458;28;19968;-68
2021/01/09 12:48:34;;;;;;;;;;;;;;;;;;4992472;28;20008;-68
2021/01/09 12:51:00;;;;;;;;;;;;;;;;;;4992975;28;20408;-69
2021/01/09 12:53:29;;;;;;;;;;;;;;;;;;4992454;28;19926;-68
2021/01/09 12:55:55;;;;;;;;;;;;;;;;;;4993726;28;20361;-68
2021/01/09 12:58:22;;;;;;;;;;;;;;;;;;4993824;28;20021;-68
2021/01/09 13:00:49;;;;;;;;;;;;;;;;;;4991999;28;19926;-70
2021/01/09 13:03:15;;;;;;;;;;;;;;;;;;4993845;28;19925;-69
2021/01/09 13:05:42;;;;;;;;;;;;;;;;;;4993109;28;20310;-68
2021/01/09 13:08:08;;;;;;;;;;;;;;;;;;4992817;28;19936;-68
2021/01/09 13:10:34;;;;;;;;;;;;;;;;;;4992482;28;20358;-68
2021/01/09 13:13:01;;;;;;;;;;;;;;;;;;4991410;28;19926;-68
2021/01/09 13:15:27;;;;;;;;;;;;;;;;;;4992582;28;19971;-68
2021/01/09 13:17:54;;;;;;;;;;;;;;;;;;4992546;28;19926;-68
2021/01/09 13:20:20;;;;;;;;;;;;;;;;;;4992803;28;20572;-68
2021/01/09 13:22:47;;;;;;;;;;;;;;;;;;4992992;28;19948;-68
2021/01/09 13:25:23;;;;;;;;;;;;;;;;;;4993027;28;19926;-69
2021/01/09 13:27:50;;;;;;;;;;;;;;;;;;4992502;28;19933;-68
2021/01/09 13:30:16;;;;;;;;;;;;;;;;;;4993538;28;19932;-68
2021/01/09 13:32:43;;;;;;;;;;;;;;;;;;4992847;28;20012;-68
2021/01/09 13:35:09;;;;;;;;;;;;;;;;;;4993028;28;19952;-69
2021/01/09 13:37:36;;;;;;;;;;;;;;;;;;4991431;28;19926;-68
2021/01/09 13:40:02;;;;;;;;;;;;;;;;;;4992976;28;20221;-68
2021/01/09 13:42:29;;;;;;;;;;;;;;;;;;4993197;28;20016;-68
2021/01/09 13:44:55;;;;;;;;;;;;;;;;;;4992933;28;19926;-68
2021/01/09 13:47:22;;;;;;;;;;;;;;;;;;4992212;28;19958;-68
2021/01/09 13:49:48;;;;;;;;;;;;;;;;;;4992767;28;19925;-68
2021/01/09 13:52:15;;;;;;;;;;;;;;;;;;4992817;28;20299;-68
2021/01/09 13:54:41;;;;;;;;;;;;;;;;;;4993409;28;19927;-68
2021/01/09 13:57:08;;;;;;;;;;;;;;;;;;4989226;28;20332;-68
2021/01/09 13:59:34;;;;;;;;;;;;;;;;;;4993091;28;19926;-68
2021/01/09 14:02:01;;;;;;;;;;;;;;;;;;4993420;28;19930;-68
2021/01/09 14:04:28;;;;;;;;;;;;;;;;;;4993547;28;19926;-68
2021/01/09 14:06:54;;;;;;;;;;;;;;;;;;4992139;28;19936;-67
2021/01/09 14:09:21;;;;;;;;;;;;;;;;;;4987727;28;19925;-68
2021/01/09 14:11:47;;;;;;;;;;;;;;;;;;4992990;28;20024;-69
2021/01/09 14:14:15;;;;;;;;;;;;;;;;;;4992894;28;20013;-68
2021/01/09 14:16:41;;;;;;;;;;;;;;;;;;4993388;28;19926;-69
2021/01/09 14:19:08;;;;;;;;;;;;;;;;;;4992106;28;19979;-68
2021/01/09 14:21:34;;;;;;;;;;;;;;;;;;4991531;28;19925;-68
2021/01/09 14:24:01;;;;;;;;;;;;;;;;;;4982345;28;19983;-68
2021/01/09 14:26:30;;;;;;;;;;;;;;;;;;4992324;28;20409;-69
2021/01/09 14:28:56;;;;;;;;;;;;;;;;;;4991480;28;19996;-68
2021/01/09 14:31:23;;;;;;;;;;;;;;;;;;4992123;28;19926;-68
2021/01/09 14:33:49;;;;;;;;;;;;;;;;;;4992574;28;19980;-68
2021/01/09 14:36:16;;;;;;;;;;;;;;;;;;4992570;28;20627;-68
2021/01/09 14:38:42;;;;;;;;;;;;;;;;;;4992967;28;19930;-68
2021/01/09 14:41:09;;;;;;;;;;;;;;;;;;4992538;28;19925;-68
2021/01/09 14:43:35;;;;;;;;;;;;;;;;;;4992391;28;19925;-68
2021/01/09 14:46:02;;;;;;;;;;;;;;;;;;4992096;28;19926;-69
2021/01/09 14:48:28;;;;;;;;;;;;;;;;;;4992884;28;19932;-68
2021/01/09 14:50:55;;;;;;;;;;;;;;;;;;4995757;28;20508;-69
2021/01/09 14:53:22;;;;;;;;;;;;;;;;;;4995843;28;19925;-68
2021/01/09 14:55:48;;;;;;;;;;;;;;;;;;4996247;28;19926;-68
2021/01/09 14:58:15;;;;;;;;;;;;;;;;;;4995827;28;19926;-70
2021/01/09 15:00:41;;;;;;;;;;;;;;;;;;4995821;28;19972;-68
2021/01/09 15:03:08;;;;;;;;;;;;;;;;;;4996145;28;19933;-68
2021/01/09 15:05:36;;;;;;;;;;;;;;;;;;4995097;28;19925;-68
2021/01/09 15:08:02;;;;;;;;;;;;;;;;;;4995861;28;19932;-69
2021/01/09 15:10:29;;;;;;;;;;;;;;;;;;4995887;28;19959;-69
2021/01/09 15:12:55;;;;;;;;;;;;;;;;;;4995760;28;19926;-68
2021/01/09 15:15:22;;;;;;;;;;;;;;;;;;4995704;28;19925;-68
2021/01/09 15:17:48;;;;;;;;;;;;;;;;;;4994770;28;19929;-68
2021/01/09 15:20:15;;;;;;;;;;;;;;;;;;4989578;28;19925;-69
2021/01/09 15:22:41;;;;;;;;;;;;;;;;;;4995850;28;19933;-70
2021/01/09 15:25:09;;;;;;;;;;;;;;;;;;4995435;28;20149;-69
2021/01/09 15:27:36;;;;;;;;;;;;;;;;;;4995484;28;20410;-69
2021/01/09 15:30:02;;;;;;;;;;;;;;;;;;4996719;28;19930;-69
2021/01/09 15:32:29;;;;;;;;;;;;;;;;;;4994385;28;19948;-69
2021/01/09 15:34:55;;;;;;;;;;;;;;;;;;4998225;28;19977;-68
2021/01/09 15:37:22;;;;;;;;;;;;;;;;;;5003977;28;19968;-68
2021/01/09 15:39:48;;;;;;;;;;;;;;;;;;5004692;28;19992;-68
2021/01/09 15:42:15;;;;;;;;;;;;;;;;;;4997394;28;19980;-69
2021/01/09 15:44:41;;;;;;;;;;;;;;;;;;4995900;28;20177;-66
2021/01/09 15:47:08;;;;;;;;;;;;;;;;;;4994741;28;20035;-67
2021/01/09 15:49:34;;;;;;;;;;;;;;;;;;4994796;28;20016;-66
2021/01/09 15:52:01;;;;;;;;;;;;;;;;;;4993957;28;20013;-68
2021/01/09 15:54:27;;;;;;;;;;;;;;;;;;4995007;28;19932;-68
2021/01/09 15:56:54;;;;;;;;;;;;;;;;;;4995042;28;19932;-68
2021/01/09 15:59:20;;;;;;;;;;;;;;;;;;4995040;28;20466;-68
2021/01/09 16:01:47;;;;;;;;;;;;;;;;;;4993651;28;20027;-68
2021/01/09 16:04:13;;;;;;;;;;;;;;;;;;4994549;28;19926;-69
2021/01/09 16:06:40;;;;;;;;;;;;;;;;;;4994565;28;19937;-69
2021/01/09 16:09:06;;;;;;;;;;;;;;;;;;4988428;28;20426;-69
2021/01/09 16:11:33;;;;;;;;;;;;;;;;;;4995265;28;19926;-68
2021/01/09 16:13:59;;;;;;;;;;;;;;;;;;4995749;28;19984;-68
2021/01/09 16:16:26;;;;;;;;;;;;;;;;;;4995439;28;20330;-68
2021/01/09 16:18:52;;;;;;;;;;;;;;;;;;4994980;28;19932;-68
2021/01/09 16:21:19;;;;;;;;;;;;;;;;;;4994633;28;19997;-68
2021/01/09 16:23:45;;;;;;;;;;;;;;;;;;4992000;28;19926;-68
2021/01/09 16:26:12;;;;;;;;;;;;;;;;;;4994539;28;19926;-68
2021/01/09 16:28:39;;;;;;;;;;;;;;;;;;4993902;28;20281;-67
2021/01/09 16:31:05;;;;;;;;;;;;;;;;;;4993798;28;19940;-66
2021/01/09 16:33:32;;;;;;;;;;;;;;;;;;4993603;28;20012;-67
2021/01/09 16:35:58;;;;;;;;;;;;;;;;;;4993239;28;19937;-66
2021/01/09 16:38:25;;;;;;;;;;;;;;;;;;4993729;28;20412;-67
2021/01/09 16:40:51;;;;;;;;;;;;;;;;;;4993146;28;20020;-69